Jungo, Nevada
Current Conditions -  °F | °C
As of 12:56 PM on Saturday 25 Oct 2014 (Local Time) from KWMC Reporting Station
Clear Clear  
Wind Chill: 73°   Ceiling: Unl
Heat Index: 73°   Visibility: 7mi
Dew Point: 20°   Wind: 21mph
Humidity: 14%   Direction: 190°S
Pressure: 29.88"   Gusts: 35mph
Location:  41.1353°N, 118.186°W
Report Text: KWMC 251956Z AUTO 19018G30KT 7SM CLR 23/M07 A2988 RMK AO2 PK WND 20034/1941 SLP091 T02281067
Loading
Personal Weather Stations






























Interactive Weather Map
Tropical Storm Tracking
New forecast layout! Learn more

10-Day Weather Forecast

Advertisements
Track Severe Weather on mobile